메인 페이지
METAR-TAF:

METAR-TAF

공항 :

마푸투, 모잠비크

위도: 25-55S, 경도: 032-34E, 고도: 39m

현재 날씨관측

예보는 47분 전, 09:00시(UTC)에 발표되었습니다.
9kt
온도 30°C
습도 46%
기압 1017 hPa
시정 10km 이상
고도 2000ft 상공 구름 보통

METAR: FQMA 180900Z 08009KT 9999 SCT020 30/17 Q1017 NOSIG

시각: 11:47 (09:47 UTC)

예보

예보는 5 시간 47분 전, 04:00시(UTC)에 발표되었습니다.
예보 대상 시간: 18일 06시부터 19일 12시까지 (UTC)
7kt
시정 10km 이상
고도 2000ft 상공 구름 보통
전환 중
18일 12시부터 18일 14시까지 (UTC)
13kt
고도 3000ft 상공 구름 조금
전환 중
18일 18시부터 18일 20시까지 (UTC)
북북동10kt
시정 10km 이상
1500m 미만 상공 구름 및 적란운 없음
전환 중
19일 00시부터 19일 02시까지 (UTC)
남서10kt
고도 2500ft 상공 구름 보통

TAF: FQMA 180400Z 1806/1912 17007KT 9999 SCT020 BECMG 1812/1814 10013KT FEW030 BECMG 1818/1820 03010KT CAVOK BECMG 1900/1902 22010KT SCT025 TN24/1903Z TX31/1813Z

4,000개 이상의 공항 관측 자료 및 예보 (METAR 및 TAF 보고).

지도상에서 검색 가능한 기상관측소가 노란 점과 빨간 점으로 표시되어 있습니다.

기상관측소 명을 보려면 표시 위로 마우스를 이동하세요.

날씨 관측과 예보를 보려면 클릭하세요.

지도 변경 : 확대하려면 엑스 표시가 있는 녹색 버튼, 축소하려면 빼기 표시가 있는 녹색 버튼, 다음 페이지의 지도를 보려면 녹색 화살표를 클릭하세요.


METAR-TAF: